createdAt,value
2022-07-30T00:00:25.084Z,98109.41
2022-07-30T00:02:30.019Z,98111.88
2022-07-30T00:04:33.502Z,98109.06
2022-07-30T00:06:37.836Z,98107.06
2022-07-30T00:08:40.909Z,98110.88
2022-07-30T00:10:44.071Z,98114.53
2022-07-30T00:12:49.070Z,98112.06
2022-07-30T00:14:52.294Z,98114.88
2022-07-30T00:16:55.595Z,98120.16
2022-07-30T00:19:00.135Z,98120.34
2022-07-30T00:21:03.167Z,98126.28
2022-07-30T00:23:06.355Z,98133.56
2022-07-30T00:25:10.115Z,98122.47
2022-07-30T00:27:14.460Z,98123.13
2022-07-30T00:29:17.631Z,98120.78
2022-07-30T00:31:20.726Z,98123.59
2022-07-30T00:33:24.073Z,98132.56
2022-07-30T00:35:28.845Z,98136.19
2022-07-30T00:37:31.915Z,98136.50
2022-07-30T00:39:34.980Z,98135.84
2022-07-30T00:41:56.469Z,98127.72
2022-07-30T00:43:59.996Z,98140.47
2022-07-30T00:46:03.199Z,98148.41
2022-07-30T00:48:07.134Z,98143.25
2022-07-30T00:50:11.571Z,98148.06
2022-07-30T00:52:16.110Z,98141.75
2022-07-30T00:54:19.427Z,98144.72
2022-07-30T00:56:23.039Z,98145.00
2022-07-30T00:58:26.179Z,98153.09
2022-07-30T01:00:29.669Z,98155.41
2022-07-30T01:02:34.319Z,98154.91
2022-07-30T01:04:37.460Z,98151.88
2022-07-30T01:06:40.899Z,98157.66
2022-07-30T01:08:45.505Z,98149.38
2022-07-30T01:10:48.609Z,98148.56
2022-07-30T01:12:52.733Z,98150.50
2022-07-30T01:14:58.796Z,98159.78
2022-07-30T01:17:02.489Z,98152.16
2022-07-30T01:19:26.376Z,98143.53
2022-07-30T01:21:33.510Z,98149.63
2022-07-30T01:23:43.216Z,98152.91
2022-07-30T01:25:54.471Z,98160.63
2022-07-30T01:28:01.488Z,98159.94
2022-07-30T01:30:07.379Z,98151.34
2022-07-30T01:32:12.243Z,98154.16
2022-07-30T01:34:17.352Z,98155.94
2022-07-30T01:36:22.870Z,98155.59
2022-07-30T01:38:27.104Z,98160.69
2022-07-30T01:40:35.384Z,98153.88
2022-07-30T01:42:41.478Z,98149.59
2022-07-30T01:44:45.645Z,98151.53
2022-07-30T01:46:50.104Z,98154.50
2022-07-30T01:48:54.921Z,98154.66
2022-07-30T01:51:04.244Z,98159.94
2022-07-30T01:53:08.581Z,98162.19
2022-07-30T01:55:17.152Z,98168.91
2022-07-30T01:57:21.009Z,98157.31
2022-07-30T01:59:26.674Z,98158.59
2022-07-30T02:01:29.871Z,98165.72
2022-07-30T02:03:36.131Z,98161.56
2022-07-30T02:05:39.883Z,98167.00
2022-07-30T02:07:48.968Z,98166.16
2022-07-30T02:09:55.644Z,98156.06
2022-07-30T02:12:17.534Z,98162.81
2022-07-30T02:14:23.366Z,98167.81
2022-07-30T02:16:30.713Z,98160.19
2022-07-30T02:18:39.591Z,98157.03
2022-07-30T02:20:48.746Z,98158.84
2022-07-30T02:22:56.745Z,98159.81
2022-07-30T02:25:01.693Z,98155.22
2022-07-30T02:27:11.601Z,98162.16
2022-07-30T02:29:18.149Z,98155.22
2022-07-30T02:31:26.508Z,98162.47
2022-07-30T02:33:36.104Z,98160.97
2022-07-30T02:35:52.054Z,98162.09
2022-07-30T02:37:55.980Z,98168.66
2022-07-30T02:39:59.512Z,98169.97
2022-07-30T02:42:03.510Z,98169.56
2022-07-30T02:44:07.300Z,98179.47
2022-07-30T02:46:11.419Z,98176.81
2022-07-30T02:48:37.434Z,98180.44
2022-07-30T02:50:40.728Z,98182.25
2022-07-30T02:52:44.596Z,98182.41
2022-07-30T02:54:49.245Z,98186.03
2022-07-30T02:56:53.136Z,98190.34
2022-07-30T02:58:57.245Z,98192.97
2022-07-30T03:01:01.577Z,98203.53
2022-07-30T03:03:07.200Z,98202.56
2022-07-30T03:05:15.957Z,98198.94
2022-07-30T03:07:19.963Z,98203.25
2022-07-30T03:09:23.200Z,98197.97
2022-07-30T03:11:28.204Z,98203.25
2022-07-30T03:13:31.564Z,98201.88
2022-07-30T03:15:39.481Z,98203.16
2022-07-30T03:17:45.734Z,98207.75
2022-07-30T03:19:49.810Z,98212.88
2022-07-30T03:21:57.539Z,98216.69
2022-07-30T03:24:03.299Z,98216.69
2022-07-30T03:26:09.521Z,98216.97
2022-07-30T03:28:13.824Z,98221.56
2022-07-30T03:30:17.994Z,98225.50
2022-07-30T03:32:21.288Z,98227.63
2022-07-30T03:34:29.755Z,98229.03
2022-07-30T03:36:33.322Z,98219.56
2022-07-30T03:38:39.223Z,98226.97
2022-07-30T03:40:43.123Z,98226.72
2022-07-30T03:42:46.751Z,98224.50
2022-07-30T03:44:53.440Z,98232.72
2022-07-30T03:46:59.367Z,98229.22
2022-07-30T03:49:03.290Z,98230.75
2022-07-30T03:51:10.045Z,98234.78
2022-07-30T03:53:15.284Z,98239.19
2022-07-30T03:55:45.609Z,98237.56
2022-07-30T03:58:07.801Z,98247.69
2022-07-30T04:00:15.319Z,98246.84
2022-07-30T04:02:23.998Z,98244.63
2022-07-30T04:04:47.470Z,98249.16
2022-07-30T04:06:50.709Z,98248.63
2022-07-30T04:08:55.628Z,98252.22
2022-07-30T04:11:00.291Z,98254.56
2022-07-30T04:13:34.714Z,98255.91
2022-07-30T04:16:37.887Z,98257.44
2022-07-30T04:18:12.511Z,98262.72
2022-07-30T04:20:18.780Z,98258.41
2022-07-30T04:22:27.975Z,98250.78
2022-07-30T04:24:32.653Z,98256.22
2022-07-30T04:26:39.105Z,98263.31
2022-07-30T04:28:42.550Z,98268.28
2022-07-30T04:30:47.282Z,98279.38
2022-07-30T04:32:50.731Z,98275.63
2022-07-30T04:35:12.504Z,98278.81
2022-07-30T04:37:55.986Z,98282.72
2022-07-30T04:39:59.089Z,98289.50
2022-07-30T04:42:03.597Z,98284.94
2022-07-30T04:44:13.597Z,98296.84
2022-07-30T04:46:26.072Z,98291.31
2022-07-30T04:48:30.570Z,98295.34
2022-07-30T04:50:48.501Z,98294.22
2022-07-30T04:52:55.697Z,98289.91
2022-07-30T04:55:06.763Z,98287.78
2022-07-30T04:57:12.341Z,98299.88
2022-07-30T04:59:16.065Z,98299.88
2022-07-30T05:01:24.110Z,98301.56
2022-07-30T05:03:41.358Z,98302.09
2022-07-30T05:05:44.702Z,98300.13
2022-07-30T05:07:47.956Z,98312.88
2022-07-30T05:09:51.510Z,98312.59
2022-07-30T05:11:56.171Z,98311.47
2022-07-30T05:14:01.262Z,98313.69
2022-07-30T05:16:04.706Z,98320.47
2022-07-30T05:18:08.771Z,98318.38
2022-07-30T05:20:15.575Z,98317.94
2022-07-30T05:22:37.777Z,98315.66
2022-07-30T05:24:47.878Z,98312.13
2022-07-30T05:26:51.193Z,98316.53
2022-07-30T05:28:56.944Z,98312.97
2022-07-30T05:31:15.233Z,98322.50
2022-07-30T05:33:42.286Z,98329.72
2022-07-30T05:35:49.271Z,98327.81
2022-07-30T05:37:52.430Z,98328.44
2022-07-30T05:39:57.451Z,98323.25
2022-07-30T05:42:26.550Z,98330.91
2022-07-30T05:44:33.382Z,98330.19
2022-07-30T05:46:37.931Z,98333.97
2022-07-30T05:48:41.152Z,98333.28
2022-07-30T05:50:44.344Z,98335.69
2022-07-30T05:52:47.482Z,98342.53
2022-07-30T05:55:11.605Z,98342.59
2022-07-30T05:57:29.750Z,98342.09
2022-07-30T05:59:33.749Z,98350.66
2022-07-30T06:02:03.302Z,98359.75
2022-07-30T06:04:25.138Z,98350.19
2022-07-30T06:06:34.497Z,98362.53
2022-07-30T06:08:37.850Z,98362.16
2022-07-30T06:10:41.496Z,98353.53
2022-07-30T06:12:47.761Z,98364.47
2022-07-30T06:14:52.805Z,98363.50
2022-07-30T06:17:03.708Z,98363.72
2022-07-30T06:19:24.018Z,98369.28
2022-07-30T06:21:27.124Z,98377.44
2022-07-30T06:23:42.194Z,98367.41
2022-07-30T06:25:59.767Z,98376.22
2022-07-30T06:28:20.898Z,98378.03
2022-07-30T06:30:31.376Z,98369.19
2022-07-30T06:32:37.156Z,98376.78
2022-07-30T06:34:40.741Z,98371.38
2022-07-30T06:36:44.293Z,98370.13
2022-07-30T06:39:05.535Z,98368.44
2022-07-30T06:41:27.287Z,98378.03
2022-07-30T06:43:34.472Z,98370.56
2022-07-30T06:46:06.515Z,98377.25
2022-07-30T06:48:16.242Z,98378.69
2022-07-30T06:50:20.348Z,98378.34
2022-07-30T06:52:23.684Z,98379.88
2022-07-30T06:54:28.900Z,98383.06
2022-07-30T06:56:34.728Z,98383.97
2022-07-30T06:58:40.922Z,98381.97
2022-07-30T07:01:02.539Z,98386.13
2022-07-30T07:03:11.520Z,98383.66
2022-07-30T07:05:16.423Z,98386.81
2022-07-30T07:07:40.306Z,98385.59
2022-07-30T07:09:45.782Z,98382.16
2022-07-30T07:12:11.507Z,98378.66
2022-07-30T07:14:17.408Z,98385.25
2022-07-30T07:16:21.741Z,98385.50
2022-07-30T07:18:25.734Z,98387.16
2022-07-30T07:20:38.293Z,98387.38
2022-07-30T07:22:43.996Z,98382.41
2022-07-30T07:24:49.116Z,98382.59
2022-07-30T07:26:57.299Z,98383.00
2022-07-30T07:29:04.964Z,98378.88
2022-07-30T07:31:09.554Z,98386.69
2022-07-30T07:33:13.378Z,98396.56
2022-07-30T07:35:20.264Z,98390.34
2022-07-30T07:37:27.135Z,98388.47
2022-07-30T07:39:31.462Z,98388.47
2022-07-30T07:41:48.183Z,98379.13
2022-07-30T07:43:54.158Z,98380.31
2022-07-30T07:46:06.720Z,98377.31
2022-07-30T07:48:11.783Z,98382.09
2022-07-30T07:50:27.049Z,98381.03
2022-07-30T07:52:31.663Z,98384.97
2022-07-30T07:54:34.820Z,98385.53
2022-07-30T07:56:37.976Z,98394.16
2022-07-30T07:58:42.986Z,98389.38
2022-07-30T08:00:48.558Z,98383.72
2022-07-30T08:02:53.434Z,98388.59
2022-07-30T08:04:56.754Z,98382.19
2022-07-30T08:07:21.523Z,98386.94
2022-07-30T08:09:52.017Z,98377.41
2022-07-30T08:12:13.898Z,98385.19
2022-07-30T08:14:39.974Z,98379.72
2022-07-30T08:17:09.590Z,98383.34
2022-07-30T08:19:33.004Z,98381.78
2022-07-30T08:21:53.177Z,98383.22
2022-07-30T08:23:56.457Z,98383.78
2022-07-30T08:26:02.119Z,98385.19
2022-07-30T08:28:05.405Z,98383.13
2022-07-30T08:30:10.289Z,98366.28
2022-07-30T08:32:14.594Z,98378.47
2022-07-30T08:34:20.344Z,98371.38
2022-07-30T08:36:29.136Z,98376.09
2022-07-30T08:38:32.424Z,98366.97
2022-07-30T08:40:36.562Z,98368.75
2022-07-30T08:42:42.220Z,98369.66
2022-07-30T08:44:46.416Z,98366.06
2022-07-30T08:46:53.019Z,98377.88
2022-07-30T08:49:16.738Z,98369.88
2022-07-30T08:51:21.030Z,98370.16
2022-07-30T08:53:43.307Z,98365.94
2022-07-30T08:55:46.549Z,98379.53
2022-07-30T08:57:51.075Z,98372.34
2022-07-30T09:00:00.403Z,98378.69
2022-07-30T09:02:07.795Z,98382.69
2022-07-30T09:04:23.645Z,98377.44
2022-07-30T09:06:29.284Z,98385.25
2022-07-30T09:08:33.440Z,98378.63
2022-07-30T09:10:37.463Z,98381.09
2022-07-30T09:12:41.576Z,98378.59
2022-07-30T09:15:02.817Z,98376.31
2022-07-30T09:17:06.946Z,98368.59
2022-07-30T09:19:15.349Z,98371.91
2022-07-30T09:21:20.850Z,98358.25
2022-07-30T09:23:28.177Z,98365.84
2022-07-30T09:25:51.927Z,98373.81
2022-07-30T09:28:15.825Z,98367.22
2022-07-30T09:30:48.183Z,98367.25
2022-07-30T09:33:09.644Z,98357.97
2022-07-30T09:35:36.190Z,98363.16
2022-07-30T09:37:48.592Z,98363.78
2022-07-30T09:40:16.666Z,98363.66
2022-07-30T09:42:45.749Z,98369.06
2022-07-30T09:44:51.244Z,98364.06
2022-07-30T09:46:55.973Z,98367.03
2022-07-30T09:49:15.892Z,98369.41
2022-07-30T09:51:23.841Z,98357.09
2022-07-30T09:53:55.856Z,98351.38
2022-07-30T09:56:04.397Z,98347.16
2022-07-30T09:58:08.236Z,98357.16
2022-07-30T10:00:24.019Z,98351.41
2022-07-30T10:02:50.429Z,98359.75
2022-07-30T10:05:14.893Z,98362.47
2022-07-30T10:07:25.657Z,98356.91
2022-07-30T10:09:31.848Z,98358.28
2022-07-30T10:11:35.214Z,98356.03
2022-07-30T10:13:43.910Z,98353.97
2022-07-30T10:15:50.725Z,98351.88
2022-07-30T10:17:55.383Z,98337.88
2022-07-30T10:20:22.689Z,98351.97
2022-07-30T10:22:46.675Z,98357.56
2022-07-30T10:25:11.344Z,98355.16
2022-07-30T10:27:41.204Z,98351.16
2022-07-30T10:29:57.454Z,98351.59
2022-07-30T10:32:01.992Z,98357.78
2022-07-30T10:34:06.401Z,98355.41
2022-07-30T10:36:11.850Z,98344.75
2022-07-30T10:38:16.426Z,98348.06
2022-07-30T10:40:30.446Z,98352.75
2022-07-30T10:42:48.766Z,98341.47
2022-07-30T10:45:09.991Z,98344.41
2022-07-30T10:47:24.686Z,98350.66
2022-07-30T10:49:40.368Z,98352.91
2022-07-30T10:51:46.589Z,98356.84
2022-07-30T10:53:49.848Z,98354.81
2022-07-30T10:56:12.205Z,98352.66
2022-07-30T10:58:18.027Z,98338.59
2022-07-30T11:00:26.948Z,98341.38
2022-07-30T11:02:31.310Z,98343.13
2022-07-30T11:04:36.855Z,98346.78
2022-07-30T11:06:40.352Z,98342.75
2022-07-30T11:08:45.056Z,98341.69
2022-07-30T11:10:51.164Z,98334.34
2022-07-30T11:12:55.621Z,98338.69
2022-07-30T11:15:06.160Z,98346.34
2022-07-30T11:17:10.555Z,98342.94
2022-07-30T11:19:56.707Z,98344.72
2022-07-30T11:21:42.404Z,98344.63
2022-07-30T11:23:53.374Z,98336.44
2022-07-30T11:25:58.429Z,98342.94
2022-07-30T11:28:02.032Z,98331.38
2022-07-30T11:30:08.193Z,98333.13
2022-07-30T11:32:26.087Z,98322.03
2022-07-30T11:34:30.675Z,98327.75
2022-07-30T11:36:34.325Z,98334.22
2022-07-30T11:39:00.084Z,98324.50
2022-07-30T11:41:10.901Z,98323.91
2022-07-30T11:43:34.556Z,98324.91
2022-07-30T11:45:39.596Z,98324.66
2022-07-30T11:47:43.162Z,98321.06
2022-07-30T11:49:47.153Z,98314.72
2022-07-30T11:51:51.016Z,98317.28
2022-07-30T11:54:07.257Z,98316.69
2022-07-30T11:56:10.437Z,98317.91
2022-07-30T11:58:27.074Z,98314.81
2022-07-30T12:00:36.648Z,98313.16
2022-07-30T12:02:40.298Z,98319.56
2022-07-30T12:04:44.700Z,98313.16
2022-07-30T12:06:49.301Z,98315.38
2022-07-30T12:08:58.556Z,98306.84
2022-07-30T12:11:03.316Z,98312.53
2022-07-30T12:13:11.383Z,98309.09
2022-07-30T12:15:30.659Z,98305.84
2022-07-30T12:17:42.574Z,98307.25
2022-07-30T12:19:47.807Z,98308.56
2022-07-30T12:21:53.547Z,98303.97
2022-07-30T12:23:58.511Z,98305.06
2022-07-30T12:26:03.270Z,98315.34
2022-07-30T12:28:06.407Z,98308.16
2022-07-30T12:30:10.331Z,98309.06
2022-07-30T12:32:13.463Z,98309.50
2022-07-30T12:34:23.713Z,98315.19
2022-07-30T12:36:29.407Z,98311.41
2022-07-30T12:38:44.766Z,98313.09
2022-07-30T12:40:58.754Z,98311.91
2022-07-30T12:43:03.218Z,98312.22
2022-07-30T12:45:07.651Z,98298.88
2022-07-30T12:47:21.664Z,98303.56
2022-07-30T12:49:37.723Z,98302.53
2022-07-30T12:52:00.354Z,98301.34
2022-07-30T12:54:16.315Z,98298.59
2022-07-30T12:56:24.103Z,98301.66
2022-07-30T12:58:37.561Z,98298.63
2022-07-30T13:00:52.134Z,98297.91
2022-07-30T13:02:56.125Z,98284.38
2022-07-30T13:05:10.813Z,98278.88
2022-07-30T13:07:16.761Z,98279.09
2022-07-30T13:09:21.035Z,98270.44
2022-07-30T13:11:26.278Z,98279.78
2022-07-30T13:13:32.759Z,98274.78
2022-07-30T13:15:35.826Z,98277.25
2022-07-30T13:17:40.427Z,98269.16
2022-07-30T13:19:43.620Z,98277.75
2022-07-30T13:21:49.758Z,98274.47
2022-07-30T13:23:53.330Z,98260.16
2022-07-30T13:25:56.838Z,98275.03
2022-07-30T13:28:00.008Z,98268.50
2022-07-30T13:30:05.254Z,98255.69
2022-07-30T13:32:08.648Z,98252.25
2022-07-30T13:34:12.133Z,98255.44
2022-07-30T13:36:15.378Z,98259.34
2022-07-30T13:38:18.847Z,98246.78
2022-07-30T13:40:22.064Z,98253.66
2022-07-30T13:42:25.306Z,98248.03
2022-07-30T13:44:28.379Z,98247.53
2022-07-30T13:46:33.509Z,98249.53
2022-07-30T13:48:36.795Z,98250.78
2022-07-30T13:50:40.141Z,98249.59
2022-07-30T13:52:43.172Z,98245.88
2022-07-30T13:54:46.595Z,98246.75
2022-07-30T13:56:49.719Z,98246.53
2022-07-30T13:58:52.797Z,98240.63
2022-07-30T14:00:55.947Z,98238.03
2022-07-30T14:03:01.404Z,98233.63
2022-07-30T14:05:07.067Z,98232.03
2022-07-30T14:07:10.415Z,98238.78
2022-07-30T14:09:13.662Z,98238.47
2022-07-30T14:11:17.824Z,98229.22
2022-07-30T14:13:21.543Z,98231.22
2022-07-30T14:15:26.305Z,98223.84
2022-07-30T14:17:29.557Z,98228.78
2022-07-30T14:19:33.998Z,98220.72
2022-07-30T14:21:37.092Z,98215.91
2022-07-30T14:23:40.140Z,98215.53
2022-07-30T14:25:44.240Z,98220.72
2022-07-30T14:27:48.177Z,98220.34
2022-07-30T14:29:51.510Z,98216.22
2022-07-30T14:31:54.598Z,98216.09
2022-07-30T14:33:57.711Z,98211.56
2022-07-30T14:36:02.138Z,98208.97
2022-07-30T14:38:05.848Z,98213.00
2022-07-30T14:40:11.728Z,98212.22
2022-07-30T14:42:14.913Z,98204.69
2022-07-30T14:44:18.001Z,98213.94
2022-07-30T14:46:21.075Z,98209.84
2022-07-30T14:48:24.153Z,98208.66
2022-07-30T14:50:27.171Z,98207.00
2022-07-30T14:52:34.906Z,98203.94
2022-07-30T14:54:37.967Z,98206.53
2022-07-30T14:56:41.079Z,98208.38
2022-07-30T14:58:45.755Z,98210.31
2022-07-30T15:00:49.232Z,98202.06
2022-07-30T15:02:52.396Z,98209.53
2022-07-30T15:04:55.644Z,98212.22
2022-07-30T15:06:58.783Z,98201.00
2022-07-30T15:09:03.541Z,98208.38
2022-07-30T15:11:08.208Z,98208.22
2022-07-30T15:13:12.825Z,98210.34
2022-07-30T15:15:17.565Z,98209.38
2022-07-30T15:17:20.805Z,98209.19
2022-07-30T15:19:24.235Z,98203.28
2022-07-30T15:21:27.370Z,98210.31
2022-07-30T15:23:30.516Z,98208.34
2022-07-30T15:25:34.968Z,98209.22
2022-07-30T15:27:39.426Z,98210.44
2022-07-30T15:29:42.794Z,98208.59
2022-07-30T15:31:45.904Z,98203.78
2022-07-30T15:33:49.665Z,98197.31
2022-07-30T15:35:52.820Z,98199.97
2022-07-30T15:37:55.909Z,98205.53
2022-07-30T15:39:59.154Z,98202.41
2022-07-30T15:42:06.061Z,98189.66
2022-07-30T15:44:09.656Z,98191.34
2022-07-30T15:46:12.652Z,98190.97
2022-07-30T15:48:15.741Z,98202.09
2022-07-30T15:50:28.391Z,98191.50
2022-07-30T15:52:31.474Z,98195.22
2022-07-30T15:54:34.711Z,98189.00
2022-07-30T15:56:37.821Z,98191.94
2022-07-30T15:58:43.625Z,98193.81
2022-07-30T16:00:47.152Z,98200.41
2022-07-30T16:02:51.108Z,98198.13
2022-07-30T16:04:54.212Z,98194.19
2022-07-30T16:06:58.078Z,98197.72
2022-07-30T16:09:01.315Z,98197.72
2022-07-30T16:11:05.307Z,98195.25
2022-07-30T16:13:08.588Z,98203.13
2022-07-30T16:15:13.460Z,98200.50
2022-07-30T16:17:19.688Z,98208.81
2022-07-30T16:19:22.918Z,98206.81
2022-07-30T16:21:26.023Z,98197.81
2022-07-30T16:23:36.663Z,98199.09
2022-07-30T16:25:40.132Z,98199.94
2022-07-30T16:27:43.606Z,98200.13
2022-07-30T16:29:46.704Z,98194.13
2022-07-30T16:31:51.202Z,98186.63
2022-07-30T16:33:54.302Z,98195.09
2022-07-30T16:35:57.355Z,98194.81
2022-07-30T16:38:02.737Z,98195.97
2022-07-30T16:40:07.011Z,98184.38
2022-07-30T16:42:11.526Z,98194.09
2022-07-30T16:44:14.746Z,98196.78
2022-07-30T16:46:19.041Z,98198.41
2022-07-30T16:48:24.022Z,98188.50
2022-07-30T16:50:27.181Z,98193.34
2022-07-30T16:52:30.335Z,98192.94
2022-07-30T16:54:33.398Z,98184.06
2022-07-30T16:56:36.535Z,98192.28
2022-07-30T16:58:39.566Z,98186.69
2022-07-30T17:00:42.817Z,98188.34
2022-07-30T17:02:46.053Z,98195.38
2022-07-30T17:04:50.477Z,98192.06
2022-07-30T17:06:53.563Z,98200.13
2022-07-30T17:08:56.672Z,98186.53
2022-07-30T17:11:00.330Z,98185.94
2022-07-30T17:13:03.814Z,98192.34
2022-07-30T17:15:07.901Z,98191.53
2022-07-30T17:17:14.399Z,98192.78
2022-07-30T17:19:17.812Z,98191.59
2022-07-30T17:21:23.028Z,98196.31
2022-07-30T17:23:26.240Z,98196.97
2022-07-30T17:25:29.291Z,98193.47
2022-07-30T17:27:33.297Z,98194.50
2022-07-30T17:29:50.326Z,98189.13
2022-07-30T17:31:55.616Z,98193.31
2022-07-30T17:33:58.873Z,98186.69
2022-07-30T17:36:02.122Z,98190.81
2022-07-30T17:38:07.256Z,98197.03
2022-07-30T17:40:28.543Z,98202.63
2022-07-30T17:42:34.801Z,98202.81
2022-07-30T17:44:37.932Z,98203.25
2022-07-30T17:46:41.079Z,98201.00
2022-07-30T17:48:44.445Z,98201.22
2022-07-30T17:50:48.095Z,98203.94
2022-07-30T17:52:51.158Z,98209.13
2022-07-30T17:54:55.730Z,98205.63
2022-07-30T17:56:58.886Z,98202.19
2022-07-30T17:59:01.993Z,98212.31
2022-07-30T18:01:05.696Z,98217.50
2022-07-30T18:03:08.868Z,98216.66
2022-07-30T18:05:15.402Z,98213.16
2022-07-30T18:07:18.550Z,98220.59
2022-07-30T18:09:21.665Z,98223.69
2022-07-30T18:11:26.185Z,98211.94
2022-07-30T18:13:29.932Z,98220.19
2022-07-30T18:15:36.005Z,98221.66
2022-07-30T18:17:39.357Z,98223.91
2022-07-30T18:19:42.523Z,98227.84
2022-07-30T18:21:45.707Z,98229.09
2022-07-30T18:23:49.475Z,98227.66
2022-07-30T18:25:54.452Z,98235.06
2022-07-30T18:27:59.122Z,98224.75
2022-07-30T18:30:02.289Z,98228.06
2022-07-30T18:32:06.366Z,98227.44
2022-07-30T18:34:09.675Z,98228.66
2022-07-30T18:36:12.767Z,98237.94
2022-07-30T18:38:16.380Z,98233.19
2022-07-30T18:40:23.881Z,98238.13
2022-07-30T18:42:27.034Z,98242.47
2022-07-30T18:44:31.588Z,98236.06
2022-07-30T18:46:34.845Z,98243.50
2022-07-30T18:48:37.936Z,98248.44
2022-07-30T18:50:41.527Z,98250.91
2022-07-30T18:52:46.811Z,98248.81
2022-07-30T18:54:51.076Z,98246.34
2022-07-30T18:56:56.759Z,98252.53
2022-07-30T18:59:02.700Z,98259.53
2022-07-30T19:01:08.077Z,98257.88
2022-07-30T19:03:17.422Z,98262.13
2022-07-30T19:05:24.264Z,98260.47
2022-07-30T19:07:27.351Z,98263.94
2022-07-30T19:09:30.476Z,98262.25
2022-07-30T19:11:33.585Z,98265.75
2022-07-30T19:13:39.641Z,98271.28
2022-07-30T19:15:42.761Z,98281.16
2022-07-30T19:17:48.754Z,98281.09
2022-07-30T19:19:52.172Z,98277.97
2022-07-30T19:21:55.227Z,98287.75
2022-07-30T19:23:58.475Z,98286.88
2022-07-30T19:26:01.728Z,98288.09
2022-07-30T19:28:05.790Z,98289.84
2022-07-30T19:30:10.267Z,98289.56
2022-07-30T19:32:13.511Z,98296.69
2022-07-30T19:34:17.998Z,98293.16
2022-07-30T19:36:21.634Z,98294.50
2022-07-30T19:38:24.695Z,98300.25
2022-07-30T19:40:27.884Z,98304.97
2022-07-30T19:42:31.033Z,98306.53
2022-07-30T19:44:40.433Z,98309.16
2022-07-30T19:46:44.468Z,98303.78
2022-07-30T19:48:47.998Z,98305.53
2022-07-30T19:50:58.185Z,98314.31
2022-07-30T19:53:01.897Z,98320.59
2022-07-30T19:55:16.879Z,98314.19
2022-07-30T19:57:53.208Z,98318.44
2022-07-30T20:00:00.224Z,98317.34
2022-07-30T20:02:15.656Z,98315.41
2022-07-30T20:04:18.893Z,98314.31
2022-07-30T20:06:23.929Z,98320.03
2022-07-30T20:08:27.196Z,98326.75
2022-07-30T20:10:30.337Z,98322.16
2022-07-30T20:12:34.414Z,98323.56
2022-07-30T20:14:37.785Z,98332.16
2022-07-30T20:16:47.593Z,98325.69
2022-07-30T20:18:51.535Z,98327.44
2022-07-30T20:20:55.663Z,98326.72
2022-07-30T20:23:02.144Z,98327.47
2022-07-30T20:25:07.039Z,98323.06
2022-07-30T20:27:35.802Z,98328.28
2022-07-30T20:29:34.285Z,98333.50
2022-07-30T20:31:37.654Z,98330.91
2022-07-30T20:33:41.177Z,98337.16
2022-07-30T20:35:45.220Z,98334.41
2022-07-30T20:37:55.724Z,98337.63
2022-07-30T20:40:14.775Z,98343.03
2022-07-30T20:42:18.645Z,98339.59
2022-07-30T20:44:24.944Z,98340.50
2022-07-30T20:46:28.213Z,98339.59
2022-07-30T20:48:34.811Z,98341.09
2022-07-30T20:50:39.767Z,98340.13
2022-07-30T20:52:44.926Z,98334.06
2022-07-30T20:54:49.961Z,98334.59
2022-07-30T20:56:54.427Z,98335.47
2022-07-30T20:58:57.926Z,98333.34
2022-07-30T21:01:03.919Z,98332.22
2022-07-30T21:03:13.774Z,98338.59
2022-07-30T21:05:19.806Z,98332.53
2022-07-30T21:07:23.301Z,98338.72
2022-07-30T21:09:49.762Z,98341.41
2022-07-30T21:11:57.215Z,98341.25
2022-07-30T21:14:03.255Z,98339.28
2022-07-30T21:16:15.484Z,98342.00
2022-07-30T21:18:19.576Z,98340.72
2022-07-30T21:20:27.903Z,98341.41
2022-07-30T21:22:31.389Z,98348.91
2022-07-30T21:24:34.655Z,98340.47
2022-07-30T21:26:38.901Z,98346.13
2022-07-30T21:28:43.911Z,98345.59
2022-07-30T21:30:47.044Z,98345.94
2022-07-30T21:32:50.150Z,98352.47
2022-07-30T21:34:54.523Z,98360.09
2022-07-30T21:36:57.635Z,98351.00
2022-07-30T21:39:01.751Z,98356.78
2022-07-30T21:41:05.750Z,98359.94
2022-07-30T21:43:14.053Z,98363.75
2022-07-30T21:45:38.017Z,98363.97
2022-07-30T21:47:47.618Z,98354.69
2022-07-30T21:49:51.179Z,98361.00
2022-07-30T21:51:56.344Z,98355.53
2022-07-30T21:53:59.491Z,98358.69
2022-07-30T21:56:02.953Z,98374.13
2022-07-30T21:58:08.745Z,98360.03
2022-07-30T22:00:44.589Z,98371.28
2022-07-30T22:02:52.957Z,98366.25
2022-07-30T22:04:56.919Z,98365.44
2022-07-30T22:07:02.517Z,98362.75
2022-07-30T22:09:19.548Z,98363.06
2022-07-30T22:11:42.187Z,98357.44
2022-07-30T22:13:53.675Z,98367.22
2022-07-30T22:15:59.031Z,98371.19
2022-07-30T22:18:02.151Z,98374.84
2022-07-30T22:20:08.450Z,98378.47
2022-07-30T22:22:25.981Z,98379.47
2022-07-30T22:24:31.339Z,98377.28
2022-07-30T22:26:34.842Z,98379.59
2022-07-30T22:28:39.094Z,98376.78
2022-07-30T22:30:42.458Z,98382.91
2022-07-30T22:32:48.833Z,98392.84
2022-07-30T22:34:52.834Z,98387.88
2022-07-30T22:36:57.599Z,98389.81
2022-07-30T22:39:00.809Z,98389.00
2022-07-30T22:41:04.162Z,98390.69
2022-07-30T22:43:09.739Z,98386.34
2022-07-30T22:45:15.814Z,98386.50
2022-07-30T22:47:21.394Z,98379.53
2022-07-30T22:49:45.875Z,98382.63
2022-07-30T22:52:04.872Z,98382.13
2022-07-30T22:54:16.405Z,98395.03
2022-07-30T22:56:23.876Z,98395.34
2022-07-30T22:58:28.703Z,98385.06
2022-07-30T23:00:33.000Z,98390.38
2022-07-30T23:02:36.366Z,98388.19
2022-07-30T23:04:39.585Z,98386.84
2022-07-30T23:06:45.113Z,98388.31
2022-07-30T23:08:50.644Z,98384.31
2022-07-30T23:10:53.739Z,98381.97
2022-07-30T23:12:57.347Z,98385.59
2022-07-30T23:15:00.587Z,98388.41
2022-07-30T23:17:04.010Z,98378.31
2022-07-30T23:19:07.708Z,98386.25
2022-07-30T23:21:10.977Z,98387.41
2022-07-30T23:23:15.530Z,98382.72
2022-07-30T23:25:18.891Z,98383.03
2022-07-30T23:27:21.969Z,98386.47
2022-07-30T23:29:25.083Z,98380.97
2022-07-30T23:31:28.307Z,98383.94
2022-07-30T23:33:31.635Z,98385.88
2022-07-30T23:35:34.925Z,98384.38
2022-07-30T23:37:48.253Z,98383.69
2022-07-30T23:39:54.037Z,98380.38
2022-07-30T23:41:57.242Z,98376.22
2022-07-30T23:44:00.365Z,98376.66
2022-07-30T23:46:04.022Z,98377.81
2022-07-30T23:48:13.140Z,98375.63
2022-07-30T23:50:18.646Z,98382.34
2022-07-30T23:52:21.785Z,98370.25
2022-07-30T23:54:24.777Z,98381.47
2022-07-30T23:56:29.443Z,98379.13
2022-07-30T23:58:32.559Z,98377.75
